sensor_id;sensor_type;location;lat;lon;timestamp;temperature;humidity
26408;DHT22;14583;43.604;1.364;2023-03-23T00:01:26;15.20;90.80
26408;DHT22;14583;43.604;1.364;2023-03-23T00:03:55;15.20;90.10
26408;DHT22;14583;43.604;1.364;2023-03-23T00:06:26;15.20;90.20
26408;DHT22;14583;43.604;1.364;2023-03-23T00:08:53;15.20;90.30
26408;DHT22;14583;43.604;1.364;2023-03-23T00:11:27;15.10;90.70
26408;DHT22;14583;43.604;1.364;2023-03-23T00:13:56;15.10;90.70
26408;DHT22;14583;43.604;1.364;2023-03-23T00:16:24;15.10;90.70
26408;DHT22;14583;43.604;1.364;2023-03-23T00:19:05;15.10;90.70
26408;DHT22;14583;43.604;1.364;2023-03-23T00:21:34;15.10;91.00
26408;DHT22;14583;43.604;1.364;2023-03-23T00:24:08;15.10;91.00
26408;DHT22;14583;43.604;1.364;2023-03-23T00:26:36;15.00;91.00
26408;DHT22;14583;43.604;1.364;2023-03-23T00:29:07;15.00;91.00
26408;DHT22;14583;43.604;1.364;2023-03-23T00:31:33;15.00;91.10
26408;DHT22;14583;43.604;1.364;2023-03-23T00:34:02;15.00;91.20
26408;DHT22;14583;43.604;1.364;2023-03-23T00:36:33;15.00;91.10
26408;DHT22;14583;43.604;1.364;2023-03-23T00:39:02;15.00;91.20
26408;DHT22;14583;43.604;1.364;2023-03-23T00:41:28;15.00;91.60
26408;DHT22;14583;43.604;1.364;2023-03-23T00:43:56;14.90;91.70
26408;DHT22;14583;43.604;1.364;2023-03-23T00:46:23;14.90;91.80
26408;DHT22;14583;43.604;1.364;2023-03-23T00:48:49;14.90;92.30
26408;DHT22;14583;43.604;1.364;2023-03-23T00:51:19;14.80;92.20
26408;DHT22;14583;43.604;1.364;2023-03-23T00:53:45;14.80;92.50
26408;DHT22;14583;43.604;1.364;2023-03-23T00:56:11;14.80;92.40
26408;DHT22;14583;43.604;1.364;2023-03-23T00:58:37;14.70;92.50
26408;DHT22;14583;43.604;1.364;2023-03-23T01:01:03;14.70;93.00
26408;DHT22;14583;43.604;1.364;2023-03-23T01:03:29;14.70;92.90
26408;DHT22;14583;43.604;1.364;2023-03-23T01:05:55;14.60;93.10
26408;DHT22;14583;43.604;1.364;2023-03-23T01:08:22;14.60;93.60
26408;DHT22;14583;43.604;1.364;2023-03-23T01:10:48;14.50;93.80
26408;DHT22;14583;43.604;1.364;2023-03-23T01:13:15;14.50;94.10
26408;DHT22;14583;43.604;1.364;2023-03-23T01:15:42;14.40;94.30
26408;DHT22;14583;43.604;1.364;2023-03-23T01:18:09;14.40;94.70
26408;DHT22;14583;43.604;1.364;2023-03-23T01:20:36;14.40;94.90
26408;DHT22;14583;43.604;1.364;2023-03-23T01:23:02;14.40;95.20
26408;DHT22;14583;43.604;1.364;2023-03-23T01:25:30;14.30;95.40
26408;DHT22;14583;43.604;1.364;2023-03-23T01:27:57;14.30;95.50
26408;DHT22;14583;43.604;1.364;2023-03-23T01:30:24;14.30;95.60
26408;DHT22;14583;43.604;1.364;2023-03-23T01:32:49;14.30;95.70
26408;DHT22;14583;43.604;1.364;2023-03-23T01:35:16;14.30;96.10
26408;DHT22;14583;43.604;1.364;2023-03-23T01:37:42;14.30;96.30
26408;DHT22;14583;43.604;1.364;2023-03-23T01:40:09;14.20;96.60
26408;DHT22;14583;43.604;1.364;2023-03-23T01:42:36;14.20;96.80
26408;DHT22;14583;43.604;1.364;2023-03-23T01:45:23;14.10;97.10
26408;DHT22;14583;43.604;1.364;2023-03-23T01:47:57;14.00;97.30
26408;DHT22;14583;43.604;1.364;2023-03-23T01:50:26;14.10;97.60
26408;DHT22;14583;43.604;1.364;2023-03-23T01:52:55;14.10;97.60
26408;DHT22;14583;43.604;1.364;2023-03-23T01:55:22;14.00;98.00
26408;DHT22;14583;43.604;1.364;2023-03-23T01:57:49;14.00;98.10
26408;DHT22;14583;43.604;1.364;2023-03-23T02:00:15;14.00;98.30
26408;DHT22;14583;43.604;1.364;2023-03-23T02:02:46;13.90;98.90
26408;DHT22;14583;43.604;1.364;2023-03-23T02:05:30;13.90;99.10
26408;DHT22;14583;43.604;1.364;2023-03-23T02:08:00;13.80;99.40
26408;DHT22;14583;43.604;1.364;2023-03-23T02:10:29;13.80;99.80
26408;DHT22;14583;43.604;1.364;2023-03-23T02:12:56;13.70;99.90
26408;DHT22;14583;43.604;1.364;2023-03-23T02:15:22;13.80;99.90
26408;DHT22;14583;43.604;1.364;2023-03-23T02:18:01;13.90;99.90
26408;DHT22;14583;43.604;1.364;2023-03-23T02:23:08;13.90;99.90
26408;DHT22;14583;43.604;1.364;2023-03-23T02:25:43;14.00;99.90
26408;DHT22;14583;43.604;1.364;2023-03-23T02:34:12;14.10;99.90
26408;DHT22;14583;43.604;1.364;2023-03-23T02:36:36;14.00;99.90
26408;DHT22;14583;43.604;1.364;2023-03-23T02:39:09;13.90;99.90
26408;DHT22;14583;43.604;1.364;2023-03-23T02:41:51;13.80;99.90
26408;DHT22;14583;43.604;1.364;2023-03-23T02:44:19;13.80;99.90
26408;DHT22;14583;43.604;1.364;2023-03-23T02:46:45;13.90;99.90
26408;DHT22;14583;43.604;1.364;2023-03-23T02:49:15;13.90;99.90
26408;DHT22;14583;43.604;1.364;2023-03-23T02:51:43;13.90;99.90
26408;DHT22;14583;43.604;1.364;2023-03-23T02:54:11;13.90;99.90
26408;DHT22;14583;43.604;1.364;2023-03-23T02:56:39;14.00;99.90
26408;DHT22;14583;43.604;1.364;2023-03-23T02:59:06;14.00;99.90
26408;DHT22;14583;43.604;1.364;2023-03-23T03:04:10;13.70;99.90
26408;DHT22;14583;43.604;1.364;2023-03-23T03:07:02;13.70;99.90
26408;DHT22;14583;43.604;1.364;2023-03-23T03:09:50;13.80;99.90
26408;DHT22;14583;43.604;1.364;2023-03-23T03:15:41;13.80;99.90
26408;DHT22;14583;43.604;1.364;2023-03-23T03:18:24;13.80;99.90
26408;DHT22;14583;43.604;1.364;2023-03-23T03:20:54;13.60;99.90
26408;DHT22;14583;43.604;1.364;2023-03-23T03:23:25;13.70;99.90
26408;DHT22;14583;43.604;1.364;2023-03-23T03:25:53;13.50;99.90
26408;DHT22;14583;43.604;1.364;2023-03-23T03:28:24;13.50;99.90
26408;DHT22;14583;43.604;1.364;2023-03-23T03:30:57;13.50;99.90
26408;DHT22;14583;43.604;1.364;2023-03-23T03:33:26;13.50;99.90
26408;DHT22;14583;43.604;1.364;2023-03-23T03:35:57;13.40;99.90
26408;DHT22;14583;43.604;1.364;2023-03-23T03:38:24;13.50;99.90
26408;DHT22;14583;43.604;1.364;2023-03-23T03:40:51;13.60;99.90
26408;DHT22;14583;43.604;1.364;2023-03-23T03:43:17;13.60;99.90
26408;DHT22;14583;43.604;1.364;2023-03-23T03:45:43;13.60;99.90
26408;DHT22;14583;43.604;1.364;2023-03-23T03:48:09;13.50;99.90
26408;DHT22;14583;43.604;1.364;2023-03-23T03:50:35;13.60;99.90
26408;DHT22;14583;43.604;1.364;2023-03-23T03:53:01;13.60;99.90
26408;DHT22;14583;43.604;1.364;2023-03-23T03:55:27;13.50;99.90
26408;DHT22;14583;43.604;1.364;2023-03-23T03:57:56;13.60;99.90
26408;DHT22;14583;43.604;1.364;2023-03-23T04:00:23;13.40;99.90
26408;DHT22;14583;43.604;1.364;2023-03-23T04:02:50;13.20;99.90
26408;DHT22;14583;43.604;1.364;2023-03-23T04:05:21;13.30;99.90
26408;DHT22;14583;43.604;1.364;2023-03-23T04:07:47;13.40;99.90
26408;DHT22;14583;43.604;1.364;2023-03-23T04:10:18;13.50;99.90
26408;DHT22;14583;43.604;1.364;2023-03-23T04:12:47;13.30;99.90
26408;DHT22;14583;43.604;1.364;2023-03-23T04:15:12;13.20;99.90
26408;DHT22;14583;43.604;1.364;2023-03-23T04:17:39;13.20;99.90
26408;DHT22;14583;43.604;1.364;2023-03-23T04:20:06;13.30;99.90
26408;DHT22;14583;43.604;1.364;2023-03-23T04:22:38;13.40;99.90
26408;DHT22;14583;43.604;1.364;2023-03-23T04:25:04;13.30;99.90
26408;DHT22;14583;43.604;1.364;2023-03-23T04:27:32;13.30;99.90
26408;DHT22;14583;43.604;1.364;2023-03-23T04:29:58;13.30;99.90
26408;DHT22;14583;43.604;1.364;2023-03-23T04:32:25;13.30;99.90
26408;DHT22;14583;43.604;1.364;2023-03-23T04:34:55;13.30;99.90
26408;DHT22;14583;43.604;1.364;2023-03-23T04:37:24;13.30;99.90
26408;DHT22;14583;43.604;1.364;2023-03-23T04:39:55;13.20;99.90
26408;DHT22;14583;43.604;1.364;2023-03-23T04:42:30;13.20;99.90
26408;DHT22;14583;43.604;1.364;2023-03-23T04:44:57;13.40;99.90
26408;DHT22;14583;43.604;1.364;2023-03-23T04:47:23;13.40;99.90
26408;DHT22;14583;43.604;1.364;2023-03-23T04:49:49;13.50;99.90
26408;DHT22;14583;43.604;1.364;2023-03-23T04:52:17;13.60;99.90
26408;DHT22;14583;43.604;1.364;2023-03-23T04:54:43;13.50;99.90
26408;DHT22;14583;43.604;1.364;2023-03-23T04:57:09;13.60;99.90
26408;DHT22;14583;43.604;1.364;2023-03-23T04:59:35;13.70;99.90
26408;DHT22;14583;43.604;1.364;2023-03-23T05:02:01;13.40;99.90
26408;DHT22;14583;43.604;1.364;2023-03-23T05:04:26;13.30;99.90
26408;DHT22;14583;43.604;1.364;2023-03-23T05:06:52;13.50;99.90
26408;DHT22;14583;43.604;1.364;2023-03-23T05:09:19;13.50;99.90
26408;DHT22;14583;43.604;1.364;2023-03-23T05:11:45;13.60;99.90
26408;DHT22;14583;43.604;1.364;2023-03-23T05:14:11;13.60;99.90
26408;DHT22;14583;43.604;1.364;2023-03-23T05:16:37;13.40;99.90
26408;DHT22;14583;43.604;1.364;2023-03-23T05:19:03;13.40;99.90
26408;DHT22;14583;43.604;1.364;2023-03-23T05:21:30;13.50;99.90
26408;DHT22;14583;43.604;1.364;2023-03-23T05:23:56;13.40;99.90
26408;DHT22;14583;43.604;1.364;2023-03-23T05:26:22;13.50;99.90
26408;DHT22;14583;43.604;1.364;2023-03-23T05:28:49;13.50;99.90
26408;DHT22;14583;43.604;1.364;2023-03-23T05:31:18;13.60;99.90
26408;DHT22;14583;43.604;1.364;2023-03-23T05:33:44;13.60;99.90
26408;DHT22;14583;43.604;1.364;2023-03-23T05:36:11;13.40;99.90
26408;DHT22;14583;43.604;1.364;2023-03-23T05:38:39;13.50;99.90
26408;DHT22;14583;43.604;1.364;2023-03-23T05:41:07;13.40;99.90
26408;DHT22;14583;43.604;1.364;2023-03-23T05:43:33;13.50;99.90
26408;DHT22;14583;43.604;1.364;2023-03-23T05:45:59;13.50;99.90
26408;DHT22;14583;43.604;1.364;2023-03-23T05:48:25;13.50;99.90
26408;DHT22;14583;43.604;1.364;2023-03-23T05:50:51;13.40;99.90
26408;DHT22;14583;43.604;1.364;2023-03-23T05:53:17;13.30;99.90
26408;DHT22;14583;43.604;1.364;2023-03-23T05:55:43;13.40;99.90
26408;DHT22;14583;43.604;1.364;2023-03-23T05:58:08;13.40;99.90
26408;DHT22;14583;43.604;1.364;2023-03-23T06:00:34;13.50;99.90
26408;DHT22;14583;43.604;1.364;2023-03-23T06:03:00;13.50;99.90
26408;DHT22;14583;43.604;1.364;2023-03-23T06:05:26;13.60;99.90
26408;DHT22;14583;43.604;1.364;2023-03-23T06:07:52;13.60;99.90
26408;DHT22;14583;43.604;1.364;2023-03-23T06:10:18;13.60;99.90
26408;DHT22;14583;43.604;1.364;2023-03-23T06:12:44;13.70;99.90
26408;DHT22;14583;43.604;1.364;2023-03-23T06:15:11;13.60;99.90
26408;DHT22;14583;43.604;1.364;2023-03-23T06:17:37;13.60;99.90
26408;DHT22;14583;43.604;1.364;2023-03-23T06:20:04;13.60;99.90
26408;DHT22;14583;43.604;1.364;2023-03-23T06:22:39;13.50;99.90
26408;DHT22;14583;43.604;1.364;2023-03-23T06:25:09;13.40;99.90
26408;DHT22;14583;43.604;1.364;2023-03-23T06:27:36;13.40;99.90
26408;DHT22;14583;43.604;1.364;2023-03-23T06:30:04;13.40;99.90
26408;DHT22;14583;43.604;1.364;2023-03-23T06:32:30;13.50;99.90
26408;DHT22;14583;43.604;1.364;2023-03-23T06:34:57;13.60;99.90
26408;DHT22;14583;43.604;1.364;2023-03-23T06:37:23;13.60;99.90
26408;DHT22;14583;43.604;1.364;2023-03-23T06:39:50;13.60;99.90
26408;DHT22;14583;43.604;1.364;2023-03-23T06:42:17;13.60;99.90
26408;DHT22;14583;43.604;1.364;2023-03-23T06:44:43;13.70;99.90
26408;DHT22;14583;43.604;1.364;2023-03-23T06:47:09;13.60;99.90
26408;DHT22;14583;43.604;1.364;2023-03-23T06:49:35;13.70;99.90
26408;DHT22;14583;43.604;1.364;2023-03-23T06:52:00;13.70;99.90
26408;DHT22;14583;43.604;1.364;2023-03-23T06:54:27;13.70;99.90
26408;DHT22;14583;43.604;1.364;2023-03-23T06:56:53;13.70;99.90
26408;DHT22;14583;43.604;1.364;2023-03-23T06:59:19;13.70;99.90
26408;DHT22;14583;43.604;1.364;2023-03-23T07:01:44;13.90;99.90
26408;DHT22;14583;43.604;1.364;2023-03-23T07:04:12;13.90;99.90
26408;DHT22;14583;43.604;1.364;2023-03-23T07:06:37;14.00;99.90
26408;DHT22;14583;43.604;1.364;2023-03-23T07:09:03;14.00;99.90
26408;DHT22;14583;43.604;1.364;2023-03-23T07:11:29;14.00;99.90
26408;DHT22;14583;43.604;1.364;2023-03-23T07:13:55;13.80;99.90
26408;DHT22;14583;43.604;1.364;2023-03-23T07:16:21;13.80;99.90
26408;DHT22;14583;43.604;1.364;2023-03-23T07:18:47;13.80;99.90
26408;DHT22;14583;43.604;1.364;2023-03-23T07:21:12;13.80;99.90
26408;DHT22;14583;43.604;1.364;2023-03-23T07:23:38;13.80;99.90
26408;DHT22;14583;43.604;1.364;2023-03-23T07:26:04;13.80;99.90
26408;DHT22;14583;43.604;1.364;2023-03-23T07:28:30;13.80;99.90
26408;DHT22;14583;43.604;1.364;2023-03-23T07:30:55;13.80;99.90
26408;DHT22;14583;43.604;1.364;2023-03-23T07:33:21;13.80;99.90
26408;DHT22;14583;43.604;1.364;2023-03-23T07:35:47;13.90;99.90
26408;DHT22;14583;43.604;1.364;2023-03-23T07:38:13;13.90;99.90
26408;DHT22;14583;43.604;1.364;2023-03-23T07:40:40;14.00;99.90
26408;DHT22;14583;43.604;1.364;2023-03-23T07:43:06;14.10;99.90
26408;DHT22;14583;43.604;1.364;2023-03-23T07:45:32;14.10;99.90
26408;DHT22;14583;43.604;1.364;2023-03-23T07:47:59;14.10;99.90
26408;DHT22;14583;43.604;1.364;2023-03-23T07:50:26;14.10;99.90
26408;DHT22;14583;43.604;1.364;2023-03-23T07:52:54;14.10;99.90
26408;DHT22;14583;43.604;1.364;2023-03-23T07:55:20;14.00;99.90
26408;DHT22;14583;43.604;1.364;2023-03-23T07:57:47;14.10;99.90
26408;DHT22;14583;43.604;1.364;2023-03-23T08:00:15;14.20;99.90
26408;DHT22;14583;43.604;1.364;2023-03-23T08:02:44;14.20;99.90
26408;DHT22;14583;43.604;1.364;2023-03-23T08:05:09;14.30;99.90
26408;DHT22;14583;43.604;1.364;2023-03-23T08:07:35;14.40;99.90
26408;DHT22;14583;43.604;1.364;2023-03-23T08:10:02;14.40;99.90
26408;DHT22;14583;43.604;1.364;2023-03-23T08:12:28;14.60;99.90
26408;DHT22;14583;43.604;1.364;2023-03-23T08:14:53;14.70;99.90
26408;DHT22;14583;43.604;1.364;2023-03-23T08:17:19;14.70;99.90
26408;DHT22;14583;43.604;1.364;2023-03-23T08:19:45;14.70;99.90
26408;DHT22;14583;43.604;1.364;2023-03-23T08:22:11;14.70;99.90
26408;DHT22;14583;43.604;1.364;2023-03-23T08:24:37;14.60;99.90
26408;DHT22;14583;43.604;1.364;2023-03-23T08:27:03;14.70;99.90
26408;DHT22;14583;43.604;1.364;2023-03-23T08:29:30;14.90;99.90
26408;DHT22;14583;43.604;1.364;2023-03-23T08:31:57;15.00;99.90
26408;DHT22;14583;43.604;1.364;2023-03-23T08:34:26;15.20;99.90
26408;DHT22;14583;43.604;1.364;2023-03-23T08:36:51;15.40;99.90
26408;DHT22;14583;43.604;1.364;2023-03-23T08:39:18;15.60;99.90
26408;DHT22;14583;43.604;1.364;2023-03-23T08:41:44;15.70;99.90
26408;DHT22;14583;43.604;1.364;2023-03-23T08:44:10;15.60;99.90
26408;DHT22;14583;43.604;1.364;2023-03-23T08:46:37;15.60;99.90
26408;DHT22;14583;43.604;1.364;2023-03-23T08:49:02;15.40;99.90
26408;DHT22;14583;43.604;1.364;2023-03-23T08:51:28;15.30;99.90
26408;DHT22;14583;43.604;1.364;2023-03-23T08:53:54;15.30;99.90
26408;DHT22;14583;43.604;1.364;2023-03-23T08:56:19;15.40;99.90
26408;DHT22;14583;43.604;1.364;2023-03-23T08:58:45;15.50;99.90
26408;DHT22;14583;43.604;1.364;2023-03-23T09:01:11;15.60;99.90
26408;DHT22;14583;43.604;1.364;2023-03-23T09:03:37;15.60;99.90
26408;DHT22;14583;43.604;1.364;2023-03-23T09:06:05;15.60;99.90
26408;DHT22;14583;43.604;1.364;2023-03-23T09:08:32;15.60;99.90
26408;DHT22;14583;43.604;1.364;2023-03-23T09:11:02;15.60;99.90
26408;DHT22;14583;43.604;1.364;2023-03-23T09:13:29;15.70;99.90
26408;DHT22;14583;43.604;1.364;2023-03-23T09:15:55;15.80;99.90
26408;DHT22;14583;43.604;1.364;2023-03-23T09:18:20;15.90;99.90
26408;DHT22;14583;43.604;1.364;2023-03-23T09:20:49;15.90;99.90
26408;DHT22;14583;43.604;1.364;2023-03-23T09:23:15;15.90;99.90
26408;DHT22;14583;43.604;1.364;2023-03-23T09:25:42;15.80;99.90
26408;DHT22;14583;43.604;1.364;2023-03-23T09:28:08;15.70;99.90
26408;DHT22;14583;43.604;1.364;2023-03-23T09:30:35;15.70;99.90
26408;DHT22;14583;43.604;1.364;2023-03-23T09:33:03;15.70;99.90
26408;DHT22;14583;43.604;1.364;2023-03-23T09:35:29;15.70;99.90
26408;DHT22;14583;43.604;1.364;2023-03-23T09:37:56;15.80;99.90
26408;DHT22;14583;43.604;1.364;2023-03-23T09:51:30;16.30;99.90
26408;DHT22;14583;43.604;1.364;2023-03-23T09:54:43;16.20;99.90
26408;DHT22;14583;43.604;1.364;2023-03-23T09:56:51;16.30;99.90
26408;DHT22;14583;43.604;1.364;2023-03-23T10:01:51;16.30;99.90
26408;DHT22;14583;43.604;1.364;2023-03-23T10:07:19;16.30;99.90
26408;DHT22;14583;43.604;1.364;2023-03-23T10:09:51;16.30;99.90
26408;DHT22;14583;43.604;1.364;2023-03-23T10:12:36;16.20;99.90
26408;DHT22;14583;43.604;1.364;2023-03-23T10:15:13;16.30;99.90
26408;DHT22;14583;43.604;1.364;2023-03-23T10:22:52;16.20;99.90
26408;DHT22;14583;43.604;1.364;2023-03-23T10:25:23;16.20;99.90
26408;DHT22;14583;43.604;1.364;2023-03-23T10:28:06;16.40;99.90
26408;DHT22;14583;43.604;1.364;2023-03-23T10:30:48;16.50;99.90
26408;DHT22;14583;43.604;1.364;2023-03-23T10:33:20;16.60;99.90
26408;DHT22;14583;43.604;1.364;2023-03-23T10:35:55;16.80;99.90
26408;DHT22;14583;43.604;1.364;2023-03-23T10:38:39;17.10;99.90
26408;DHT22;14583;43.604;1.364;2023-03-23T10:41:17;17.30;99.90
26408;DHT22;14583;43.604;1.364;2023-03-23T10:43:44;17.40;99.90
26408;DHT22;14583;43.604;1.364;2023-03-23T10:46:25;17.50;99.90
26408;DHT22;14583;43.604;1.364;2023-03-23T10:48:53;17.40;99.90
26408;DHT22;14583;43.604;1.364;2023-03-23T10:51:23;17.30;99.90
26408;DHT22;14583;43.604;1.364;2023-03-23T10:53:57;17.30;99.90
26408;DHT22;14583;43.604;1.364;2023-03-23T10:56:27;17.40;99.90
26408;DHT22;14583;43.604;1.364;2023-03-23T10:58:53;17.40;99.90
26408;DHT22;14583;43.604;1.364;2023-03-23T11:01:30;17.30;99.90
26408;DHT22;14583;43.604;1.364;2023-03-23T11:03:56;17.30;99.90
26408;DHT22;14583;43.604;1.364;2023-03-23T11:06:32;17.30;99.90
26408;DHT22;14583;43.604;1.364;2023-03-23T11:09:08;17.50;99.90
26408;DHT22;14583;43.604;1.364;2023-03-23T11:11:42;17.60;99.90
26408;DHT22;14583;43.604;1.364;2023-03-23T11:16:53;18.00;99.90
26408;DHT22;14583;43.604;1.364;2023-03-23T11:19:35;18.10;99.90
26408;DHT22;14583;43.604;1.364;2023-03-23T11:22:06;18.20;99.90
26408;DHT22;14583;43.604;1.364;2023-03-23T11:24:41;18.20;99.90
26408;DHT22;14583;43.604;1.364;2023-03-23T11:27:09;18.10;99.90
26408;DHT22;14583;43.604;1.364;2023-03-23T11:29:45;18.00;99.90
26408;DHT22;14583;43.604;1.364;2023-03-23T11:32:14;18.00;99.90
26408;DHT22;14583;43.604;1.364;2023-03-23T11:34:43;18.00;99.90
26408;DHT22;14583;43.604;1.364;2023-03-23T11:54:24;18.70;99.90
26408;DHT22;14583;43.604;1.364;2023-03-23T11:56:52;19.00;99.90
26408;DHT22;14583;43.604;1.364;2023-03-23T11:59:32;19.10;99.90
26408;DHT22;14583;43.604;1.364;2023-03-23T12:07:40;18.70;99.90
26408;DHT22;14583;43.604;1.364;2023-03-23T12:10:30;18.70;99.90
26408;DHT22;14583;43.604;1.364;2023-03-23T12:15:51;19.10;99.90
26408;DHT22;14583;43.604;1.364;2023-03-23T12:18:43;19.20;99.90
26408;DHT22;14583;43.604;1.364;2023-03-23T12:21:30;19.30;99.90
26408;DHT22;14583;43.604;1.364;2023-03-23T12:27:25;19.20;99.90
26408;DHT22;14583;43.604;1.364;2023-03-23T12:33:19;19.30;99.90
26408;DHT22;14583;43.604;1.364;2023-03-23T12:41:29;19.10;99.90
26408;DHT22;14583;43.604;1.364;2023-03-23T12:44:09;19.10;99.90
26408;DHT22;14583;43.604;1.364;2023-03-23T12:49:45;18.70;99.90
26408;DHT22;14583;43.604;1.364;2023-03-23T12:55:21;18.50;99.90
26408;DHT22;14583;43.604;1.364;2023-03-23T12:58:08;18.60;99.90
26408;DHT22;14583;43.604;1.364;2023-03-23T13:01:00;18.80;99.90
26408;DHT22;14583;43.604;1.364;2023-03-23T13:03:28;18.90;99.90
26408;DHT22;14583;43.604;1.364;2023-03-23T13:08:58;19.20;99.90
26408;DHT22;14583;43.604;1.364;2023-03-23T13:11:34;19.50;99.90
26408;DHT22;14583;43.604;1.364;2023-03-23T13:19:46;19.70;99.90
26408;DHT22;14583;43.604;1.364;2023-03-23T13:22:30;19.70;99.90
26408;DHT22;14583;43.604;1.364;2023-03-23T13:25:00;19.70;99.90
26408;DHT22;14583;43.604;1.364;2023-03-23T13:27:28;20.00;99.90
26408;DHT22;14583;43.604;1.364;2023-03-23T13:29:56;19.80;99.90
26408;DHT22;14583;43.604;1.364;2023-03-23T13:32:34;20.00;99.90
26408;DHT22;14583;43.604;1.364;2023-03-23T13:35:04;20.10;99.90
26408;DHT22;14583;43.604;1.364;2023-03-23T13:37:32;20.20;99.90
26408;DHT22;14583;43.604;1.364;2023-03-23T13:40:18;20.30;99.90
26408;DHT22;14583;43.604;1.364;2023-03-23T13:42:54;19.90;99.90
26408;DHT22;14583;43.604;1.364;2023-03-23T13:51:03;20.00;99.90
26408;DHT22;14583;43.604;1.364;2023-03-23T14:01:35;20.80;99.90
26408;DHT22;14583;43.604;1.364;2023-03-23T14:04:13;20.90;99.90
26408;DHT22;14583;43.604;1.364;2023-03-23T14:06:40;20.60;99.90
26408;DHT22;14583;43.604;1.364;2023-03-23T14:12:01;20.70;99.90
26408;DHT22;14583;43.604;1.364;2023-03-23T14:14:40;20.80;99.90
26408;DHT22;14583;43.604;1.364;2023-03-23T14:19:32;20.60;99.90
26408;DHT22;14583;43.604;1.364;2023-03-23T14:22:00;20.20;99.90
26408;DHT22;14583;43.604;1.364;2023-03-23T14:24:31;20.30;99.90
26408;DHT22;14583;43.604;1.364;2023-03-23T14:27:20;20.40;99.90
26408;DHT22;14583;43.604;1.364;2023-03-23T14:29:56;20.30;99.90
26408;DHT22;14583;43.604;1.364;2023-03-23T14:32:23;20.10;99.90
26408;DHT22;14583;43.604;1.364;2023-03-23T14:34:52;19.50;99.90
26408;DHT22;14583;43.604;1.364;2023-03-23T14:37:18;19.30;99.90
26408;DHT22;14583;43.604;1.364;2023-03-23T14:39:48;19.20;99.90
26408;DHT22;14583;43.604;1.364;2023-03-23T14:42:17;19.40;99.90
26408;DHT22;14583;43.604;1.364;2023-03-23T14:44:47;19.40;99.90
26408;DHT22;14583;43.604;1.364;2023-03-23T14:47:21;19.60;99.90
26408;DHT22;14583;43.604;1.364;2023-03-23T14:49:53;19.40;99.90
26408;DHT22;14583;43.604;1.364;2023-03-23T14:52:22;19.30;99.90
26408;DHT22;14583;43.604;1.364;2023-03-23T14:54:48;19.00;99.90
26408;DHT22;14583;43.604;1.364;2023-03-23T14:57:16;19.00;99.90
26408;DHT22;14583;43.604;1.364;2023-03-23T14:59:44;18.90;99.90
26408;DHT22;14583;43.604;1.364;2023-03-23T15:02:19;18.90;99.90
26408;DHT22;14583;43.604;1.364;2023-03-23T15:04:48;19.30;99.90
26408;DHT22;14583;43.604;1.364;2023-03-23T15:07:16;19.20;99.90
26408;DHT22;14583;43.604;1.364;2023-03-23T15:09:45;19.60;99.90
26408;DHT22;14583;43.604;1.364;2023-03-23T15:12:30;19.40;99.90
26408;DHT22;14583;43.604;1.364;2023-03-23T15:15:02;19.20;99.90
26408;DHT22;14583;43.604;1.364;2023-03-23T15:17:34;19.20;99.90
26408;DHT22;14583;43.604;1.364;2023-03-23T15:20:09;19.50;99.90
26408;DHT22;14583;43.604;1.364;2023-03-23T15:22:35;19.20;99.90
26408;DHT22;14583;43.604;1.364;2023-03-23T15:25:22;19.60;99.90
26408;DHT22;14583;43.604;1.364;2023-03-23T15:27:52;19.30;99.90
26408;DHT22;14583;43.604;1.364;2023-03-23T15:33:13;19.40;99.90
26408;DHT22;14583;43.604;1.364;2023-03-23T15:35:50;19.20;99.90
26408;DHT22;14583;43.604;1.364;2023-03-23T15:40:53;18.70;99.90
26408;DHT22;14583;43.604;1.364;2023-03-23T15:43:24;18.60;99.90
26408;DHT22;14583;43.604;1.364;2023-03-23T15:48:48;18.80;99.90
26408;DHT22;14583;43.604;1.364;2023-03-23T15:51:15;19.30;99.90
26408;DHT22;14583;43.604;1.364;2023-03-23T15:53:41;23.30;99.90
26408;DHT22;14583;43.604;1.364;2023-03-23T15:56:10;26.40;99.90
26408;DHT22;14583;43.604;1.364;2023-03-23T15:58:36;28.30;95.90
26408;DHT22;14583;43.604;1.364;2023-03-23T16:01:07;27.30;94.20
26408;DHT22;14583;43.604;1.364;2023-03-23T16:06:05;24.90;96.70
26408;DHT22;14583;43.604;1.364;2023-03-23T16:08:30;26.20;94.80
26408;DHT22;14583;43.604;1.364;2023-03-23T16:10:56;26.40;94.70
26408;DHT22;14583;43.604;1.364;2023-03-23T16:13:22;24.00;95.80
26408;DHT22;14583;43.604;1.364;2023-03-23T16:15:48;22.20;99.30
26408;DHT22;14583;43.604;1.364;2023-03-23T16:18:19;23.60;98.70
26408;DHT22;14583;43.604;1.364;2023-03-23T16:20:49;26.60;95.50
26408;DHT22;14583;43.604;1.364;2023-03-23T16:23:15;25.30;95.10
26408;DHT22;14583;43.604;1.364;2023-03-23T16:25:41;24.10;96.70
26408;DHT22;14583;43.604;1.364;2023-03-23T16:28:12;26.30;96.50
26408;DHT22;14583;43.604;1.364;2023-03-23T16:30:38;26.70;93.80
26408;DHT22;14583;43.604;1.364;2023-03-23T16:33:04;24.60;95.40
26408;DHT22;14583;43.604;1.364;2023-03-23T16:35:30;24.10;96.70
26408;DHT22;14583;43.604;1.364;2023-03-23T16:37:56;24.10;95.50
26408;DHT22;14583;43.604;1.364;2023-03-23T16:40:23;22.20;97.90
26408;DHT22;14583;43.604;1.364;2023-03-23T16:42:49;21.60;99.10
26408;DHT22;14583;43.604;1.364;2023-03-23T16:45:16;21.40;99.70
26408;DHT22;14583;43.604;1.364;2023-03-23T16:47:42;21.20;99.90
26408;DHT22;14583;43.604;1.364;2023-03-23T16:50:11;21.40;99.70
26408;DHT22;14583;43.604;1.364;2023-03-23T16:52:38;21.60;99.30
26408;DHT22;14583;43.604;1.364;2023-03-23T16:55:05;20.80;99.90
26408;DHT22;14583;43.604;1.364;2023-03-23T16:57:32;20.40;99.90
26408;DHT22;14583;43.604;1.364;2023-03-23T17:00:00;20.10;99.90
26408;DHT22;14583;43.604;1.364;2023-03-23T17:02:26;19.40;99.90
26408;DHT22;14583;43.604;1.364;2023-03-23T17:04:52;18.50;99.90
26408;DHT22;14583;43.604;1.364;2023-03-23T17:07:17;17.90;99.90
26408;DHT22;14583;43.604;1.364;2023-03-23T17:09:43;17.70;99.90
26408;DHT22;14583;43.604;1.364;2023-03-23T17:12:09;17.20;99.90
26408;DHT22;14583;43.604;1.364;2023-03-23T17:14:35;17.10;99.90
26408;DHT22;14583;43.604;1.364;2023-03-23T17:17:01;17.30;99.90
26408;DHT22;14583;43.604;1.364;2023-03-23T17:19:27;17.10;99.90
26408;DHT22;14583;43.604;1.364;2023-03-23T17:21:52;17.10;99.90
26408;DHT22;14583;43.604;1.364;2023-03-23T17:24:18;17.00;99.90
26408;DHT22;14583;43.604;1.364;2023-03-23T17:26:44;16.80;99.90
26408;DHT22;14583;43.604;1.364;2023-03-23T17:29:09;16.90;99.90
26408;DHT22;14583;43.604;1.364;2023-03-23T17:31:35;16.70;99.90
26408;DHT22;14583;43.604;1.364;2023-03-23T17:34:01;16.70;99.90
26408;DHT22;14583;43.604;1.364;2023-03-23T17:36:26;16.60;99.90
26408;DHT22;14583;43.604;1.364;2023-03-23T17:38:52;16.60;99.90
26408;DHT22;14583;43.604;1.364;2023-03-23T17:41:18;16.50;99.90
26408;DHT22;14583;43.604;1.364;2023-03-23T17:43:45;16.40;99.90